Time;durP1;ratioP1;P1;durP2;ratioP2;P2;SDS_P1;SDS_P2;PMS_P1;PMS_P2;Temp;Humidity;BMP_temperature;BMP_pressure;BME280_temperature;BME280_humidity;BME280_pressure;Samples;Min_cycle;Max_cycle;Signal;HPM_P1;HPM_P2
2024/02/17 00:00:23;;;;;;;14.75;9.60;;;;;;;;;;2062096;28;20035;-77
2024/02/17 00:01:42;;;;;;;12.20;9.32;;;;;;;;;;2068801;28;20434;-76
2024/02/17 00:03:02;;;;;;;10.57;8.55;;;;;;;;;;2074728;28;20100;-76
2024/02/17 00:04:20;;;;;;;9.57;8.25;;;;;;;;;;2075719;28;20046;-77
2024/02/17 00:05:40;;;;;;;12.32;9.10;;;;;;;;;;2074792;28;20444;-76
2024/02/17 00:06:59;;;;;;;8.80;7.90;;;;;;;;;;2075698;28;20026;-75
2024/02/17 00:08:18;;;;;;;9.55;8.45;;;;;;;;;;2074828;28;20029;-75
2024/02/17 00:09:38;;;;;;;8.52;7.50;;;;;;;;;;2074519;28;20025;-76
2024/02/17 00:10:57;;;;;;;9.32;7.75;;;;;;;;;;2074601;28;20033;-77
2024/02/17 00:12:16;;;;;;;9.68;6.40;;;;;;;;;;2066184;28;20026;-77
2024/02/17 00:13:35;;;;;;;5.80;5.18;;;;;;;;;;2071824;28;20408;-78
2024/02/17 00:14:54;;;;;;;6.50;5.80;;;;;;;;;;2066407;28;20037;-76
2024/02/17 00:16:13;;;;;;;6.20;5.60;;;;;;;;;;2071539;28;20116;-77
2024/02/17 00:17:32;;;;;;;5.70;5.20;;;;;;;;;;2073645;28;20108;-77
2024/02/17 00:18:51;;;;;;;5.32;4.63;;;;;;;;;;2060042;28;20545;-77
2024/02/17 00:20:09;;;;;;;3.80;3.50;;;;;;;;;;2069920;28;20034;-77
2024/02/17 00:21:28;;;;;;;3.80;3.50;;;;;;;;;;2073760;28;20025;-76
2024/02/17 00:22:47;;;;;;;3.78;3.47;;;;;;;;;;2074061;28;20030;-76
2024/02/17 00:24:06;;;;;;;3.85;3.55;;;;;;;;;;2073454;28;20397;-75
2024/02/17 00:25:25;;;;;;;3.05;2.85;;;;;;;;;;2074122;28;20112;-76
2024/02/17 00:26:44;;;;;;;3.35;3.05;;;;;;;;;;2072218;28;20140;-76
2024/02/17 00:28:04;;;;;;;2.92;2.72;;;;;;;;;;2072552;28;20041;-76
2024/02/17 00:29:22;;;;;;;2.30;1.90;;;;;;;;;;2075036;28;20387;-76
2024/02/17 00:30:41;;;;;;;1.40;1.30;;;;;;;;;;2073671;28;20492;-76
2024/02/17 00:32:01;;;;;;;1.90;0.90;;;;;;;;;;2065355;28;20042;-76
2024/02/17 00:33:19;;;;;;;0.20;0.20;;;;;;;;;;2070130;28;20030;-76
2024/02/17 00:34:39;;;;;;;0.20;0.20;;;;;;;;;;2074842;28;20030;-76
2024/02/17 00:35:59;;;;;;;0.15;0.15;;;;;;;;;;2075457;28;20333;-76
2024/02/17 00:37:18;;;;;;;0.10;0.10;;;;;;;;;;2073906;28;20431;-75
2024/02/17 00:38:37;;;;;;;0.10;0.10;;;;;;;;;;2064637;28;20022;-74
2024/02/17 00:39:57;;;;;;;0.00;0.00;;;;;;;;;;2071774;28;20018;-75
2024/02/17 00:41:15;;;;;;;0.05;0.05;;;;;;;;;;2073078;28;20550;-76
2024/02/17 00:42:35;;;;;;;0.10;0.00;;;;;;;;;;2074245;28;20497;-75
2024/02/17 00:43:54;;;;;;;0.17;0.10;;;;;;;;;;2066428;28;20448;-74
2024/02/17 00:45:13;;;;;;;0.47;0.00;;;;;;;;;;2065763;28;20469;-74
2024/02/17 00:46:32;;;;;;;0.10;0.00;;;;;;;;;;2071386;28;20052;-76
2024/02/17 00:47:51;;;;;;;1.38;0.00;;;;;;;;;;2074363;28;20042;-76
2024/02/17 00:49:10;;;;;;;0.38;0.00;;;;;;;;;;2073517;28;20030;-75
2024/02/17 00:50:30;;;;;;;0.00;0.00;;;;;;;;;;2076517;28;20030;-76
2024/02/17 00:51:48;;;;;;;0.10;0.00;;;;;;;;;;2074872;28;20108;-76
2024/02/17 00:53:08;;;;;;;0.10;0.00;;;;;;;;;;2073969;28;20472;-75
2024/02/17 00:54:26;;;;;;;0.30;0.00;;;;;;;;;;2075801;28;20033;-75
2024/02/17 00:55:45;;;;;;;0.00;0.00;;;;;;;;;;2073663;28;20045;-75
2024/02/17 00:57:04;;;;;;;0.10;0.10;;;;;;;;;;2075796;28;20038;-75
2024/02/17 00:58:23;;;;;;;1.23;0.00;;;;;;;;;;2075767;28;20026;-74
2024/02/17 00:59:42;;;;;;;0.10;0.00;;;;;;;;;;2074960;28;20022;-73
2024/02/17 01:01:02;;;;;;;0.10;0.08;;;;;;;;;;2066423;28;20041;-74
2024/02/17 01:02:20;;;;;;;0.30;0.10;;;;;;;;;;2062975;28;20529;-73
2024/02/17 01:03:39;;;;;;;0.10;0.10;;;;;;;;;;2070980;28;20021;-74
2024/02/17 01:05:02;;;;;;;0.10;0.10;;;;;;;;;;2076310;28;20045;-74
2024/02/17 01:06:21;;;;;;;0.00;0.00;;;;;;;;;;2075747;28;20025;-74
2024/02/17 01:07:40;;;;;;;0.20;0.10;;;;;;;;;;2074374;28;20100;-74
2024/02/17 01:08:59;;;;;;;0.15;0.15;;;;;;;;;;2073681;28;20063;-74
2024/02/17 01:10:18;;;;;;;0.13;0.13;;;;;;;;;;2075259;28;20105;-75
2024/02/17 01:11:37;;;;;;;0.05;0.05;;;;;;;;;;2074056;28;20022;-75
2024/02/17 01:12:56;;;;;;;0.60;0.10;;;;;;;;;;2075430;28;20025;-74
2024/02/17 01:14:15;;;;;;;0.10;0.10;;;;;;;;;;2073326;28;20030;-73
2024/02/17 01:15:34;;;;;;;0.10;0.10;;;;;;;;;;2074874;28;20030;-74
2024/02/17 01:16:53;;;;;;;0.00;0.00;;;;;;;;;;2075304;28;20037;-73
2024/02/17 01:18:12;;;;;;;1.17;0.10;;;;;;;;;;2074892;28;20041;-74
2024/02/17 01:19:30;;;;;;;0.08;0.08;;;;;;;;;;2066797;28;20026;-74
2024/02/17 01:20:49;;;;;;;0.03;0.03;;;;;;;;;;2061917;28;20025;-74
2024/02/17 01:22:08;;;;;;;0.22;0.15;;;;;;;;;;2071659;28;20493;-74
2024/02/17 01:23:27;;;;;;;0.00;0.00;;;;;;;;;;2063168;28;20042;-73
2024/02/17 01:24:46;;;;;;;0.57;0.10;;;;;;;;;;2072430;28;20029;-74
2024/02/17 01:26:06;;;;;;;0.00;0.00;;;;;;;;;;2075043;28;20034;-75
2024/02/17 01:27:25;;;;;;;0.22;0.00;;;;;;;;;;2074363;28;20489;-73
2024/02/17 01:28:44;;;;;;;0.13;0.05;;;;;;;;;;2060643;28;20061;-74
2024/02/17 01:30:04;;;;;;;0.00;0.00;;;;;;;;;;2060941;28;20022;-75
2024/02/17 01:31:22;;;;;;;0.00;0.00;;;;;;;;;;2069743;28;20822;-75
2024/02/17 01:32:42;;;;;;;0.08;0.08;;;;;;;;;;2072514;28;20037;-75
2024/02/17 01:34:01;;;;;;;0.10;0.10;;;;;;;;;;2074632;28;20385;-74
2024/02/17 01:35:20;;;;;;;0.10;0.10;;;;;;;;;;2073547;28;20033;-74
2024/02/17 01:36:39;;;;;;;0.75;0.03;;;;;;;;;;2065016;28;20034;-74
2024/02/17 01:38:01;;;;;;;0.10;0.10;;;;;;;;;;2069108;28;20033;-74
2024/02/17 01:39:23;;;;;;;0.10;0.10;;;;;;;;;;2073611;28;20034;-75
2024/02/17 01:40:42;;;;;;;0.17;0.10;;;;;;;;;;2074260;28;20029;-74
2024/02/17 01:42:01;;;;;;;0.10;0.10;;;;;;;;;;2065120;28;20437;-75
2024/02/17 01:43:20;;;;;;;0.50;0.20;;;;;;;;;;2069936;28;20041;-75
2024/02/17 01:44:39;;;;;;;0.30;0.15;;;;;;;;;;2073805;28;20053;-73
2024/02/17 01:45:58;;;;;;;0.43;0.20;;;;;;;;;;2073085;28;20116;-73
2024/02/17 01:47:17;;;;;;;0.20;0.20;;;;;;;;;;2075267;28;20030;-74
2024/02/17 01:48:36;;;;;;;0.35;0.30;;;;;;;;;;2072701;28;20390;-73
2024/02/17 01:49:56;;;;;;;0.22;0.22;;;;;;;;;;2074729;28;20030;-73
2024/02/17 01:51:15;;;;;;;0.10;0.10;;;;;;;;;;2074120;28;20057;-74
2024/02/17 01:52:34;;;;;;;0.20;0.10;;;;;;;;;;2074884;28;20037;-74
2024/02/17 01:53:54;;;;;;;0.00;0.00;;;;;;;;;;2073397;28;20022;-74
2024/02/17 01:55:13;;;;;;;0.32;0.10;;;;;;;;;;2072712;28;20081;-74
2024/02/17 01:56:32;;;;;;;0.45;0.17;;;;;;;;;;2074103;28;20405;-73
2024/02/17 01:57:51;;;;;;;0.00;0.00;;;;;;;;;;2074918;28;20029;-74
2024/02/17 01:59:10;;;;;;;0.10;0.10;;;;;;;;;;2074863;28;20108;-74
2024/02/17 02:00:30;;;;;;;0.10;0.10;;;;;;;;;;2073991;28;20100;-74
2024/02/17 02:01:50;;;;;;;0.10;0.10;;;;;;;;;;2074065;28;20153;-74
2024/02/17 02:03:09;;;;;;;0.10;0.10;;;;;;;;;;2074234;28;20073;-74
2024/02/17 02:04:29;;;;;;;0.10;0.08;;;;;;;;;;2074125;28;20022;-74
2024/02/17 02:05:48;;;;;;;0.40;0.10;;;;;;;;;;2073988;28;20979;-74
2024/02/17 02:07:07;;;;;;;0.10;0.10;;;;;;;;;;2065028;28;20473;-74
2024/02/17 02:08:26;;;;;;;0.10;0.10;;;;;;;;;;2070808;28;20045;-74
2024/02/17 02:09:45;;;;;;;0.13;0.13;;;;;;;;;;2075342;28;20022;-76
2024/02/17 02:11:04;;;;;;;0.20;0.20;;;;;;;;;;2074253;28;20116;-74
2024/02/17 02:12:23;;;;;;;0.10;0.10;;;;;;;;;;2069004;28;20509;-75
2024/02/17 02:13:43;;;;;;;0.15;0.15;;;;;;;;;;2071820;28;20026;-75
2024/02/17 02:15:06;;;;;;;0.20;0.20;;;;;;;;;;2074180;28;20034;-75
2024/02/17 02:16:25;;;;;;;0.10;0.10;;;;;;;;;;2073938;28;20113;-75
2024/02/17 02:17:46;;;;;;;0.45;0.10;;;;;;;;;;2073077;28;20041;-74
2024/02/17 02:19:05;;;;;;;0.10;0.10;;;;;;;;;;2074612;28;20551;-75
2024/02/17 02:20:25;;;;;;;0.30;0.30;;;;;;;;;;2059143;28;20062;-74
2024/02/17 02:21:44;;;;;;;0.08;0.08;;;;;;;;;;2069161;28;20026;-75
2024/02/17 02:23:04;;;;;;;0.10;0.10;;;;;;;;;;2074047;28;20458;-75
2024/02/17 02:24:23;;;;;;;0.10;0.10;;;;;;;;;;2074858;28;20034;-75
2024/02/17 02:25:51;;;;;;;0.10;0.10;;;;;;;;;;2073727;28;20034;-74
2024/02/17 02:27:10;;;;;;;0.10;0.10;;;;;;;;;;2074389;28;20053;-74
2024/02/17 02:28:30;;;;;;;0.20;0.20;;;;;;;;;;2060110;28;20026;-74
2024/02/17 02:29:49;;;;;;;0.10;0.10;;;;;;;;;;2066839;28;20505;-75
2024/02/17 02:31:08;;;;;;;0.10;0.10;;;;;;;;;;2073088;28;20108;-75
2024/02/17 02:32:27;;;;;;;0.20;0.20;;;;;;;;;;2074223;28;20018;-75
2024/02/17 02:33:47;;;;;;;0.10;0.10;;;;;;;;;;2074600;28;20029;-75
2024/02/17 02:35:07;;;;;;;0.10;0.10;;;;;;;;;;2066185;28;20062;-75
2024/02/17 02:36:26;;;;;;;0.20;0.20;;;;;;;;;;2069352;28;20484;-76
2024/02/17 02:37:45;;;;;;;0.20;0.20;;;;;;;;;;2073988;28;20038;-75
2024/02/17 02:39:05;;;;;;;0.10;0.10;;;;;;;;;;2064118;28;20030;-75
2024/02/17 02:40:24;;;;;;;0.20;0.20;;;;;;;;;;2072145;28;20029;-75
2024/02/17 02:41:43;;;;;;;0.20;0.20;;;;;;;;;;2075708;28;20034;-75
2024/02/17 02:43:02;;;;;;;0.20;0.20;;;;;;;;;;2074483;28;20056;-75
2024/02/17 02:44:21;;;;;;;0.20;0.20;;;;;;;;;;2074288;28;20046;-75
2024/02/17 02:45:40;;;;;;;0.17;0.17;;;;;;;;;;2075329;28;20030;-75
2024/02/17 02:46:59;;;;;;;0.25;0.25;;;;;;;;;;2076580;28;20388;-75
2024/02/17 02:48:18;;;;;;;0.20;0.20;;;;;;;;;;2075967;28;20033;-75
2024/02/17 02:49:37;;;;;;;0.22;0.22;;;;;;;;;;2070795;28;20492;-76
2024/02/17 02:50:56;;;;;;;0.10;0.10;;;;;;;;;;2076622;28;20041;-75
2024/02/17 02:52:15;;;;;;;0.20;0.20;;;;;;;;;;2066159;28;20452;-75
2024/02/17 02:53:33;;;;;;;0.20;0.20;;;;;;;;;;2072589;28;20018;-75
2024/02/17 02:54:52;;;;;;;1.35;0.10;;;;;;;;;;2074618;28;20042;-75
2024/02/17 02:56:11;;;;;;;0.20;0.20;;;;;;;;;;2076053;28;20045;-75
2024/02/17 02:57:30;;;;;;;0.10;0.10;;;;;;;;;;2075525;28;20488;-76
2024/02/17 02:58:49;;;;;;;0.20;0.20;;;;;;;;;;2076124;28;20022;-75
2024/02/17 03:00:08;;;;;;;0.20;0.20;;;;;;;;;;2075219;28;20366;-75
2024/02/17 03:01:27;;;;;;;0.20;0.20;;;;;;;;;;2066686;28;20034;-74
2024/02/17 03:02:46;;;;;;;0.30;0.13;;;;;;;;;;2071822;28;20026;-75
2024/02/17 03:04:05;;;;;;;0.10;0.10;;;;;;;;;;2075492;28;20075;-75
2024/02/17 03:05:24;;;;;;;0.20;0.20;;;;;;;;;;2074526;28;20029;-75
2024/02/17 03:06:43;;;;;;;0.20;0.20;;;;;;;;;;2073745;28;20025;-75
2024/02/17 03:08:04;;;;;;;0.20;0.20;;;;;;;;;;2075810;28;20034;-75
2024/02/17 03:09:22;;;;;;;0.32;0.30;;;;;;;;;;2075783;28;20114;-75
2024/02/17 03:10:41;;;;;;;0.13;0.13;;;;;;;;;;2067115;28;20022;-74
2024/02/17 03:12:00;;;;;;;0.20;0.20;;;;;;;;;;2070973;28;20052;-74
2024/02/17 03:13:19;;;;;;;0.10;0.10;;;;;;;;;;2067019;28;20038;-73
2024/02/17 03:14:40;;;;;;;0.30;0.20;;;;;;;;;;2071447;28;20037;-73
2024/02/17 03:15:59;;;;;;;0.15;0.15;;;;;;;;;;2075007;28;20452;-74
2024/02/17 03:17:19;;;;;;;0.65;0.20;;;;;;;;;;2076571;28;20053;-74
2024/02/17 03:18:37;;;;;;;0.20;0.20;;;;;;;;;;2074852;28;20018;-74
2024/02/17 03:19:56;;;;;;;0.15;0.15;;;;;;;;;;2074705;28;20029;-75
2024/02/17 03:21:15;;;;;;;0.10;0.10;;;;;;;;;;2074803;28;20026;-75
2024/02/17 03:22:34;;;;;;;0.15;0.15;;;;;;;;;;2071900;28;20458;-73
2024/02/17 03:23:54;;;;;;;0.10;0.10;;;;;;;;;;2074464;28;20101;-73
2024/02/17 03:25:13;;;;;;;0.28;0.20;;;;;;;;;;2075716;28;20105;-75
2024/02/17 03:26:32;;;;;;;1.23;0.20;;;;;;;;;;2076228;28;20033;-74
2024/02/17 03:27:51;;;;;;;1.00;0.15;;;;;;;;;;2074469;28;20025;-74
2024/02/17 03:29:09;;;;;;;0.17;0.17;;;;;;;;;;2077063;28;20030;-74
2024/02/17 03:30:28;;;;;;;0.20;0.20;;;;;;;;;;2076896;28;20034;-73
2024/02/17 03:31:47;;;;;;;0.10;0.10;;;;;;;;;;2077114;28;20412;-74
2024/02/17 03:33:09;;;;;;;0.17;0.17;;;;;;;;;;2071178;28;20415;-74
2024/02/17 03:34:28;;;;;;;0.20;0.20;;;;;;;;;;2074592;28;20034;-75
2024/02/17 03:35:47;;;;;;;0.20;0.20;;;;;;;;;;2076415;28;20101;-74
2024/02/17 03:37:06;;;;;;;0.13;0.13;;;;;;;;;;2070363;28;20029;-75
2024/02/17 03:38:25;;;;;;;0.20;0.20;;;;;;;;;;2073223;28;20045;-74
2024/02/17 03:39:45;;;;;;;0.25;0.20;;;;;;;;;;2075313;28;20113;-75
2024/02/17 03:41:04;;;;;;;0.28;0.28;;;;;;;;;;2074634;28;20468;-74
2024/02/17 03:42:23;;;;;;;0.10;0.10;;;;;;;;;;2075618;28;20033;-74
2024/02/17 03:43:42;;;;;;;0.40;0.40;;;;;;;;;;2075761;28;20034;-74
2024/02/17 03:45:01;;;;;;;0.10;0.10;;;;;;;;;;2076128;28;20120;-74
2024/02/17 03:46:20;;;;;;;0.10;0.10;;;;;;;;;;2074718;28;20034;-76
2024/02/17 03:47:39;;;;;;;0.20;0.20;;;;;;;;;;2075580;28;20022;-74
2024/02/17 03:48:57;;;;;;;0.10;0.10;;;;;;;;;;2076878;28;20104;-74
2024/02/17 03:50:17;;;;;;;0.20;0.20;;;;;;;;;;2076772;28;20042;-74
2024/02/17 03:51:36;;;;;;;0.17;0.17;;;;;;;;;;2074778;28;20021;-74
2024/02/17 03:52:55;;;;;;;0.20;0.20;;;;;;;;;;2072970;28;20041;-75
2024/02/17 03:54:15;;;;;;;0.17;0.17;;;;;;;;;;2075949;28;20038;-75
2024/02/17 03:55:34;;;;;;;0.15;0.15;;;;;;;;;;2073506;28;20064;-74
2024/02/17 03:56:53;;;;;;;0.80;0.30;;;;;;;;;;2075957;28;20045;-74
2024/02/17 03:58:12;;;;;;;0.20;0.20;;;;;;;;;;2075068;28;20108;-74
2024/02/17 03:59:31;;;;;;;0.17;0.17;;;;;;;;;;2075733;28;20030;-74
2024/02/17 04:00:50;;;;;;;0.20;0.20;;;;;;;;;;2075582;28;20468;-74
2024/02/17 04:02:09;;;;;;;0.20;0.20;;;;;;;;;;2076549;28;20071;-74
2024/02/17 04:03:29;;;;;;;0.28;0.28;;;;;;;;;;2065442;28;20034;-74
2024/02/17 04:04:48;;;;;;;0.30;0.30;;;;;;;;;;2071227;28;20477;-75
2024/02/17 04:06:08;;;;;;;0.32;0.20;;;;;;;;;;2074527;28;20045;-74
2024/02/17 04:07:26;;;;;;;0.30;0.30;;;;;;;;;;2076118;28;20022;-74
2024/02/17 04:08:45;;;;;;;0.20;0.20;;;;;;;;;;2075751;28;20384;-74
2024/02/17 04:10:05;;;;;;;0.20;0.20;;;;;;;;;;2075142;28;20029;-73
2024/02/17 04:11:25;;;;;;;0.28;0.25;;;;;;;;;;2074792;28;20029;-73
2024/02/17 04:12:44;;;;;;;0.20;0.20;;;;;;;;;;2074218;28;20041;-74
2024/02/17 04:14:03;;;;;;;0.20;0.20;;;;;;;;;;2061002;28;20437;-74
2024/02/17 04:15:22;;;;;;;0.20;0.20;;;;;;;;;;2069187;28;20034;-74
2024/02/17 04:16:41;;;;;;;0.55;0.50;;;;;;;;;;2075562;28;20022;-74
2024/02/17 04:18:01;;;;;;;0.45;0.45;;;;;;;;;;2075772;28;20022;-74
2024/02/17 04:19:19;;;;;;;0.40;0.40;;;;;;;;;;2075561;28;20030;-74
2024/02/17 04:20:38;;;;;;;0.30;0.30;;;;;;;;;;2074770;28;20120;-74
2024/02/17 04:21:57;;;;;;;0.20;0.20;;;;;;;;;;2074955;28;20042;-74
2024/02/17 04:23:16;;;;;;;0.20;0.20;;;;;;;;;;2075011;28;20440;-74
2024/02/17 04:24:35;;;;;;;0.43;0.43;;;;;;;;;;2075528;28;20026;-74
2024/02/17 04:25:56;;;;;;;0.50;0.50;;;;;;;;;;2074686;28;20038;-74
2024/02/17 04:27:15;;;;;;;0.40;0.40;;;;;;;;;;2073248;28;20073;-74
2024/02/17 04:28:35;;;;;;;0.40;0.40;;;;;;;;;;2074135;28;20018;-74
2024/02/17 04:29:54;;;;;;;0.40;0.40;;;;;;;;;;2067714;28;20520;-74
2024/02/17 04:31:12;;;;;;;1.10;0.50;;;;;;;;;;2071666;28;20038;-74
2024/02/17 04:32:32;;;;;;;0.52;0.40;;;;;;;;;;2075049;28;20034;-74
2024/02/17 04:33:51;;;;;;;1.80;0.52;;;;;;;;;;2066078;28;20038;-74
2024/02/17 04:35:10;;;;;;;0.40;0.40;;;;;;;;;;2071776;28;20496;-74
2024/02/17 04:36:29;;;;;;;0.40;0.40;;;;;;;;;;2074165;28;20030;-74
2024/02/17 04:37:48;;;;;;;0.40;0.40;;;;;;;;;;2075084;28;20038;-74
2024/02/17 04:39:07;;;;;;;0.40;0.40;;;;;;;;;;2074940;28;20033;-75
2024/02/17 04:40:26;;;;;;;0.30;0.30;;;;;;;;;;2074701;28;20428;-75
2024/02/17 04:41:45;;;;;;;0.50;0.50;;;;;;;;;;2075341;28;20034;-74
2024/02/17 04:43:04;;;;;;;0.45;0.45;;;;;;;;;;2072662;28;20037;-74
2024/02/17 04:44:23;;;;;;;0.30;0.30;;;;;;;;;;2074098;28;20033;-74
2024/02/17 04:45:42;;;;;;;0.32;0.32;;;;;;;;;;2074326;28;20034;-74
2024/02/17 04:47:01;;;;;;;0.30;0.30;;;;;;;;;;2075662;28;20073;-74
2024/02/17 04:48:20;;;;;;;0.30;0.30;;;;;;;;;;2066503;28;20030;-74
2024/02/17 04:49:40;;;;;;;0.30;0.30;;;;;;;;;;2071221;28;20662;-75
2024/02/17 04:50:59;;;;;;;0.32;0.32;;;;;;;;;;2073627;28;20029;-75
2024/02/17 04:52:18;;;;;;;0.40;0.40;;;;;;;;;;2074758;28;20397;-75
2024/02/17 04:53:37;;;;;;;0.40;0.40;;;;;;;;;;2066033;28;20030;-74
2024/02/17 04:54:56;;;;;;;0.40;0.40;;;;;;;;;;2071081;28;20025;-74
2024/02/17 04:56:15;;;;;;;0.40;0.40;;;;;;;;;;2066159;28;20058;-75
2024/02/17 04:57:34;;;;;;;0.45;0.45;;;;;;;;;;2070879;28;20030;-75
2024/02/17 04:58:53;;;;;;;0.50;0.50;;;;;;;;;;2076071;28;20025;-75
2024/02/17 05:00:12;;;;;;;0.30;0.30;;;;;;;;;;2072948;28;20475;-75
2024/02/17 05:01:31;;;;;;;1.08;0.30;;;;;;;;;;2071472;28;20026;-75
2024/02/17 05:02:50;;;;;;;0.52;0.30;;;;;;;;;;2066552;28;20030;-75
2024/02/17 05:04:09;;;;;;;0.40;0.40;;;;;;;;;;2061770;28;20027;-75
2024/02/17 05:05:28;;;;;;;0.30;0.30;;;;;;;;;;2070926;28;20358;-75
2024/02/17 05:06:48;;;;;;;0.40;0.40;;;;;;;;;;2074120;28;20485;-75
2024/02/17 05:08:07;;;;;;;0.50;0.50;;;;;;;;;;2073042;28;20481;-75
2024/02/17 05:09:26;;;;;;;0.55;0.55;;;;;;;;;;2075028;28;20065;-75
2024/02/17 05:10:44;;;;;;;0.40;0.40;;;;;;;;;;2074582;28;20042;-75
2024/02/17 05:12:03;;;;;;;0.57;0.57;;;;;;;;;;2060010;28;20030;-75
2024/02/17 05:13:22;;;;;;;0.50;0.50;;;;;;;;;;2069741;28;20026;-74
2024/02/17 05:14:41;;;;;;;0.50;0.50;;;;;;;;;;2074873;28;20393;-75
2024/02/17 05:16:00;;;;;;;0.52;0.52;;;;;;;;;;2074721;28;20042;-75
2024/02/17 05:17:19;;;;;;;0.40;0.40;;;;;;;;;;2074866;28;20034;-75
2024/02/17 05:18:38;;;;;;;4.25;0.63;;;;;;;;;;2074412;28;20025;-75
2024/02/17 05:19:57;;;;;;;0.50;0.50;;;;;;;;;;2074269;28;20022;-75
2024/02/17 05:21:16;;;;;;;0.50;0.50;;;;;;;;;;2074957;28;20026;-75
2024/02/17 05:22:36;;;;;;;0.60;0.60;;;;;;;;;;2074107;28;20491;-75
2024/02/17 05:23:55;;;;;;;0.30;0.30;;;;;;;;;;2075006;28;20029;-75
2024/02/17 05:25:16;;;;;;;1.38;0.70;;;;;;;;;;2073879;28;20388;-75
2024/02/17 05:26:35;;;;;;;0.45;0.45;;;;;;;;;;2075186;28;20030;-75
2024/02/17 05:27:54;;;;;;;0.50;0.50;;;;;;;;;;2074182;28;20030;-75
2024/02/17 05:29:13;;;;;;;0.60;0.60;;;;;;;;;;2074121;28;20021;-74
2024/02/17 05:30:32;;;;;;;0.50;0.50;;;;;;;;;;2074177;28;20041;-75
2024/02/17 05:31:51;;;;;;;0.50;0.50;;;;;;;;;;2073593;28;20470;-75
2024/02/17 05:33:10;;;;;;;0.40;0.40;;;;;;;;;;2073800;28;20050;-75
2024/02/17 05:34:29;;;;;;;0.43;0.43;;;;;;;;;;2074840;28;20037;-75
2024/02/17 05:35:49;;;;;;;0.60;0.60;;;;;;;;;;2064714;28;20030;-75
2024/02/17 05:37:09;;;;;;;0.47;0.47;;;;;;;;;;2062891;28;20408;-75
2024/02/17 05:38:28;;;;;;;0.50;0.50;;;;;;;;;;2070936;28;20038;-75
2024/02/17 05:39:47;;;;;;;0.50;0.50;;;;;;;;;;2074490;28;20034;-74
2024/02/17 05:41:07;;;;;;;0.50;0.50;;;;;;;;;;2074238;28;20034;-75
2024/02/17 05:42:26;;;;;;;0.60;0.60;;;;;;;;;;2073512;28;20105;-75
2024/02/17 05:43:45;;;;;;;1.95;0.60;;;;;;;;;;2074259;28;20038;-75
2024/02/17 05:45:04;;;;;;;0.50;0.50;;;;;;;;;;2074405;28;20029;-75
2024/02/17 05:46:23;;;;;;;0.57;0.57;;;;;;;;;;2060564;28;20030;-74
2024/02/17 05:47:42;;;;;;;0.40;0.40;;;;;;;;;;2067934;28;20030;-75
2024/02/17 05:49:01;;;;;;;0.50;0.50;;;;;;;;;;2074911;28;20026;-75
2024/02/17 05:50:20;;;;;;;0.40;0.40;;;;;;;;;;2076416;28;20030;-75
2024/02/17 05:51:39;;;;;;;0.30;0.30;;;;;;;;;;2074264;28;20493;-75
2024/02/17 05:52:58;;;;;;;0.30;0.30;;;;;;;;;;2072623;28;20025;-75
2024/02/17 05:54:18;;;;;;;0.30;0.30;;;;;;;;;;2074949;28;20037;-74
2024/02/17 05:55:37;;;;;;;0.30;0.30;;;;;;;;;;2074364;28;20029;-75
2024/02/17 05:56:56;;;;;;;0.55;0.40;;;;;;;;;;2067413;28;20515;-74
2024/02/17 05:58:15;;;;;;;1.27;0.57;;;;;;;;;;2069499;28;20042;-74
2024/02/17 05:59:34;;;;;;;0.35;0.35;;;;;;;;;;2074624;28;20033;-74
2024/02/17 06:00:59;;;;;;;1.55;0.50;;;;;;;;;;2065068;28;20042;-74
2024/02/17 06:02:18;;;;;;;0.45;0.45;;;;;;;;;;2065180;28;20058;-75
2024/02/17 06:03:37;;;;;;;0.52;0.52;;;;;;;;;;2071944;28;20026;-74
2024/02/17 06:04:59;;;;;;;0.40;0.40;;;;;;;;;;2074634;28;20030;-74
2024/02/17 06:06:18;;;;;;;0.50;0.45;;;;;;;;;;2065650;28;20038;-75
2024/02/17 06:07:37;;;;;;;0.35;0.20;;;;;;;;;;2070641;28;20722;-74
2024/02/17 06:08:56;;;;;;;0.30;0.30;;;;;;;;;;2073461;28;20029;-75
2024/02/17 06:10:15;;;;;;;0.20;0.20;;;;;;;;;;2075691;28;20484;-74
2024/02/17 06:11:35;;;;;;;0.30;0.30;;;;;;;;;;2066111;28;20042;-74
2024/02/17 06:12:54;;;;;;;0.40;0.40;;;;;;;;;;2069714;28;20485;-75
2024/02/17 06:14:13;;;;;;;0.30;0.30;;;;;;;;;;2074774;28;20038;-74
2024/02/17 06:15:32;;;;;;;0.10;0.10;;;;;;;;;;2073949;28;20426;-75
2024/02/17 06:16:51;;;;;;;0.22;0.22;;;;;;;;;;2076476;28;20385;-75
2024/02/17 06:21:26;;;;;;;0.28;0.28;;;;;;;;;;2075572;28;20029;-74
2024/02/17 06:22:45;;;;;;;1.38;0.30;;;;;;;;;;2075031;28;20026;-74
2024/02/17 06:24:04;;;;;;;0.20;0.20;;;;;;;;;;2072454;28;20030;-75
2024/02/17 06:25:23;;;;;;;0.22;0.22;;;;;;;;;;2075176;28;20034;-75
2024/02/17 06:26:43;;;;;;;0.20;0.20;;;;;;;;;;2075452;28;20053;-75
2024/02/17 06:28:02;;;;;;;0.30;0.30;;;;;;;;;;2074928;28;20033;-75
2024/02/17 06:29:22;;;;;;;0.35;0.35;;;;;;;;;;2065386;28;20509;-74
2024/02/17 06:30:41;;;;;;;0.13;0.10;;;;;;;;;;2072844;28;20030;-75
2024/02/17 06:32:00;;;;;;;0.20;0.20;;;;;;;;;;2075895;28;20034;-75
2024/02/17 06:33:19;;;;;;;0.30;0.30;;;;;;;;;;2066993;28;20572;-74
2024/02/17 06:34:39;;;;;;;0.20;0.20;;;;;;;;;;2072757;28;20037;-74
2024/02/17 06:35:58;;;;;;;0.22;0.20;;;;;;;;;;2076343;28;20034;-74
2024/02/17 06:37:17;;;;;;;0.40;0.40;;;;;;;;;;2075003;28;20073;-74
2024/02/17 06:38:37;;;;;;;0.30;0.30;;;;;;;;;;2075240;28;20017;-75
2024/02/17 06:39:56;;;;;;;1.45;0.20;;;;;;;;;;2074354;28;20033;-75
2024/02/17 06:41:15;;;;;;;0.20;0.20;;;;;;;;;;2076740;28;20038;-75
2024/02/17 06:42:34;;;;;;;0.20;0.20;;;;;;;;;;2074103;28;20026;-75
2024/02/17 06:43:53;;;;;;;0.20;0.20;;;;;;;;;;2061635;28;20038;-76
2024/02/17 06:45:16;;;;;;;0.52;0.17;;;;;;;;;;2068473;28;20037;-76
2024/02/17 06:46:35;;;;;;;0.20;0.20;;;;;;;;;;2075889;28;20388;-76
2024/02/17 06:47:54;;;;;;;0.20;0.20;;;;;;;;;;2076301;28;20034;-77
2024/02/17 06:49:13;;;;;;;0.20;0.20;;;;;;;;;;2075439;28;20026;-77
2024/02/17 06:50:32;;;;;;;0.25;0.25;;;;;;;;;;2066814;28;20042;-76
2024/02/17 06:51:50;;;;;;;0.30;0.30;;;;;;;;;;2070645;28;20233;-76
2024/02/17 06:53:09;;;;;;;0.20;0.20;;;;;;;;;;2064478;28;20054;-76
2024/02/17 06:54:29;;;;;;;0.20;0.20;;;;;;;;;;2072417;28;20072;-76
2024/02/17 06:55:48;;;;;;;0.20;0.20;;;;;;;;;;2077264;28;20046;-77
2024/02/17 06:57:07;;;;;;;0.20;0.20;;;;;;;;;;2066887;28;20038;-76
2024/02/17 06:58:26;;;;;;;0.20;0.20;;;;;;;;;;2063173;28;20034;-76
2024/02/17 06:59:44;;;;;;;0.10;0.10;;;;;;;;;;2063225;28;20469;-76
2024/02/17 07:01:03;;;;;;;0.10;0.10;;;;;;;;;;2072559;28;20606;-75
2024/02/17 07:02:23;;;;;;;0.20;0.20;;;;;;;;;;2075052;28;20026;-75
2024/02/17 07:03:41;;;;;;;0.38;0.30;;;;;;;;;;2068277;28;20026;-75
2024/02/17 07:05:00;;;;;;;0.30;0.30;;;;;;;;;;2062967;28;20046;-76
2024/02/17 07:06:19;;;;;;;0.13;0.13;;;;;;;;;;2071940;28;20042;-76
2024/02/17 07:07:38;;;;;;;0.20;0.20;;;;;;;;;;2076105;28;20480;-75
2024/02/17 07:08:57;;;;;;;0.22;0.22;;;;;;;;;;2074350;28;20481;-76
2024/02/17 07:10:16;;;;;;;1.30;0.20;;;;;;;;;;2076421;28;20132;-76
2024/02/17 07:11:36;;;;;;;0.57;0.20;;;;;;;;;;2075266;28;20018;-76
2024/02/17 07:12:55;;;;;;;0.55;0.30;;;;;;;;;;2076103;28;20034;-76
2024/02/17 07:14:14;;;;;;;0.20;0.20;;;;;;;;;;2077303;28;20042;-76
2024/02/17 07:15:33;;;;;;;1.17;0.10;;;;;;;;;;2066725;28;20085;-75
2024/02/17 07:16:52;;;;;;;0.13;0.13;;;;;;;;;;2058886;28;20117;-76
2024/02/17 07:18:12;;;;;;;0.20;0.20;;;;;;;;;;2056203;28;20634;-75
2024/02/17 07:19:31;;;;;;;0.20;0.20;;;;;;;;;;2064706;28;20038;-75
2024/02/17 07:20:50;;;;;;;0.35;0.35;;;;;;;;;;2074301;28;20065;-75
2024/02/17 07:22:09;;;;;;;0.20;0.20;;;;;;;;;;2074349;28;20505;-75
2024/02/17 07:23:30;;;;;;;0.20;0.20;;;;;;;;;;2075114;28;20041;-75
2024/02/17 07:24:51;;;;;;;0.30;0.30;;;;;;;;;;2072803;28;20021;-75
2024/02/17 07:26:09;;;;;;;0.30;0.20;;;;;;;;;;2075163;28;20034;-75
2024/02/17 07:27:28;;;;;;;0.32;0.30;;;;;;;;;;2066350;28;20026;-75
2024/02/17 07:28:48;;;;;;;0.20;0.20;;;;;;;;;;2068425;28;20524;-75
2024/02/17 07:30:07;;;;;;;0.50;0.50;;;;;;;;;;2065491;28;20058;-75
2024/02/17 07:31:29;;;;;;;0.30;0.30;;;;;;;;;;2071850;28;20385;-75
2024/02/17 07:32:48;;;;;;;0.10;0.10;;;;;;;;;;2072817;28;20026;-75
2024/02/17 07:34:08;;;;;;;0.20;0.20;;;;;;;;;;2076351;28;20029;-75
2024/02/17 07:35:27;;;;;;;0.30;0.30;;;;;;;;;;2074281;28;20033;-74
2024/02/17 07:36:46;;;;;;;0.20;0.20;;;;;;;;;;2075219;28;20029;-75
2024/02/17 07:38:05;;;;;;;0.28;0.28;;;;;;;;;;2073592;28;20498;-77
2024/02/17 07:39:27;;;;;;;0.50;0.30;;;;;;;;;;2066858;28;20037;-77
2024/02/17 07:40:47;;;;;;;0.22;0.22;;;;;;;;;;2073634;28;20037;-77
2024/02/17 07:42:07;;;;;;;0.20;0.20;;;;;;;;;;2073235;28;20026;-77
2024/02/17 07:43:26;;;;;;;1.15;0.20;;;;;;;;;;2063624;28;20026;-76
2024/02/17 07:44:46;;;;;;;0.20;0.20;;;;;;;;;;2070281;28;20387;-77
2024/02/17 07:46:05;;;;;;;0.40;0.40;;;;;;;;;;2065333;28;20029;-78
2024/02/17 07:47:24;;;;;;;0.25;0.25;;;;;;;;;;2061750;28;20022;-78
2024/02/17 07:48:43;;;;;;;0.52;0.30;;;;;;;;;;2060871;28;20031;-77
2024/02/17 07:50:07;;;;;;;0.30;0.30;;;;;;;;;;2069162;28;20037;-77
2024/02/17 07:51:25;;;;;;;0.30;0.30;;;;;;;;;;2074722;28;20037;-78
2024/02/17 07:52:44;;;;;;;0.30;0.30;;;;;;;;;;2072373;28;20389;-78
2024/02/17 07:54:03;;;;;;;0.77;0.77;;;;;;;;;;2072995;28;20125;-78
2024/02/17 07:55:22;;;;;;;0.30;0.30;;;;;;;;;;2074561;28;20647;-77
2024/02/17 07:56:41;;;;;;;0.20;0.20;;;;;;;;;;2074405;28;20057;-78
2024/02/17 07:58:00;;;;;;;0.30;0.30;;;;;;;;;;2065646;28;20030;-78